Nord Imagination — 3FIA8 — position and weather

sailwx.info

Track history (hours):
 
Tides and Currents Weather Stations Pressure Air Temp Water Temp Dewpoint Dewpoint Depression Visibility Wind Speed Wind Dir Waves Ship Positions

Nord Imagination

Last reported at 2017-Nov-19 10:31 UTC. Time now 2017-Nov-19 15:40 UTC.
Position N 57°49' E 010°36'.

Length 179 m; draft 10.6 m.

Type: Ship (hazmat cat D). MMSI: 354828000.

Date/timePositionNaut miles runAvg speedWind from/ knotsBaromVisibWave heightAir tempDewpointWater temp
2017-Nov-19 10:31N 57°49' E 010°36'011.3
2017-Nov-19 10:30N 57°49' E 010°37'510.6
2017-Nov-19 10:00N 57°48' E 010°47'611.4
2017-Nov-19 09:30N 57°44' E 010°54'611.4
2017-Nov-19 08:59N 57°40' E 011°02'611.6
2017-Nov-19 08:30N 57°36' E 011°10'612.1
2017-Nov-19 08:00N 57°32' E 011°18'612.4
2017-Nov-19 07:30N 57°28' E 011°27'612.6
2017-Nov-19 07:00N 57°22' E 011°30'612.6
2017-Nov-19 06:30N 57°16' E 011°33'612.6
2017-Nov-19 06:00N 57°10' E 011°37'712.4
2017-Nov-19 05:27N 57°03' E 011°41'612.5
2017-Nov-19 05:00N 56°58' E 011°44'10211.0
2017-Nov-18 19:41N 55°18' E 011°03'512.2
2017-Nov-18 19:18N 55°14' E 011°06'412.1
2017-Nov-18 19:00N 55°11' E 011°04'612.8
2017-Nov-18 18:30N 55°04' E 011°02'612.6
2017-Nov-18 18:00N 54°58' E 010°58'612.2
2017-Nov-18 17:30N 54°54' E 010°51'612.1
2017-Nov-18 17:00N 54°48' E 010°50'611.3
2017-Nov-18 16:30N 54°42' E 010°48'4 8.0
2017-Nov-18 16:00N 54°39' E 010°52'611.5
2017-Nov-18 15:30N 54°36' E 011°01'611.6
2017-Nov-18 15:00N 54°35' E 011°11'611.3
2017-Nov-18 14:30N 54°33' E 011°20'612.0
2017-Nov-18 14:00N 54°31' E 011°29'611.6
2017-Nov-18 13:30N 54°28' E 011°38'611.7
2017-Nov-18 13:00N 54°27' E 011°48'611.7
2017-Nov-18 12:31N 54°27' E 011°58'611.6
2017-Nov-18 12:00N 54°27' E 012°08'510.2
2017-Nov-18 11:30N 54°31' E 012°13'73 8.6
2017-Nov-18 03:05N 55°04' E 014°05'111.4
2017-Nov-18 02:58N 55°05' E 014°06'511.6
2017-Nov-18 02:30N 55°09' E 014°12'611.3
2017-Nov-18 02:00N 55°14' E 014°18'611.6
2017-Nov-18 01:30N 55°18' E 014°25'611.9
2017-Nov-18 01:00N 55°23' E 014°31'611.8
2017-Nov-18 00:30N 55°27' E 014°38'611.9
2017-Nov-18 00:00N 55°30' E 014°48'712.1
2017-Nov-17 23:27N 55°33' E 014°58'612.1
2017-Nov-17 22:59N 55°36' E 015°07'611.9
2017-Nov-17 22:30N 55°38' E 015°16'612.1
2017-Nov-17 22:00N 55°40' E 015°26'612.1
2017-Nov-17 21:30N 55°41' E 015°37'612.1
2017-Nov-17 21:00N 55°42' E 015°47'612.2
2017-Nov-17 20:30N 55°44' E 015°58'612.2
2017-Nov-17 20:00N 55°45' E 016°08'612.0
2017-Nov-17 19:30N 55°47' E 016°19'612.0
2017-Nov-17 19:00N 55°48' E 016°29'612.1
2017-Nov-17 18:30N 55°49' E 016°40'612.0
2017-Nov-17 18:00N 55°51' E 016°50'  
Track history (hours):
 
Tides and Currents Weather Stations Pressure Air Temp Water Temp Dewpoint Dewpoint Depression Visibility Wind Speed Wind Dir Waves Ship Positions

Nord Imagination

Last reported at 2017-Nov-19 10:31 UTC. Time now 2017-Nov-19 15:40 UTC.
Position N 57°49' E 010°36'.

Length 179 m; draft 10.6 m.

Type: Ship (hazmat cat D). MMSI: 354828000.

Date/timePositionNaut miles runAvg speedWind from/ knotsBaromVisibWave heightAir tempDewpointWater temp
2017-Nov-19 10:31N 57°49' E 010°36'011.3
2017-Nov-19 10:30N 57°49' E 010°37'510.6
2017-Nov-19 10:00N 57°48' E 010°47'611.4
2017-Nov-19 09:30N 57°44' E 010°54'611.4
2017-Nov-19 08:59N 57°40' E 011°02'611.6
2017-Nov-19 08:30N 57°36' E 011°10'612.1
2017-Nov-19 08:00N 57°32' E 011°18'612.4
2017-Nov-19 07:30N 57°28' E 011°27'612.6
2017-Nov-19 07:00N 57°22' E 011°30'612.6
2017-Nov-19 06:30N 57°16' E 011°33'612.6
2017-Nov-19 06:00N 57°10' E 011°37'712.4
2017-Nov-19 05:27N 57°03' E 011°41'612.5
2017-Nov-19 05:00N 56°58' E 011°44'10211.0
2017-Nov-18 19:41N 55°18' E 011°03'512.2
2017-Nov-18 19:18N 55°14' E 011°06'412.1
2017-Nov-18 19:00N 55°11' E 011°04'612.8
2017-Nov-18 18:30N 55°04' E 011°02'612.6
2017-Nov-18 18:00N 54°58' E 010°58'612.2
2017-Nov-18 17:30N 54°54' E 010°51'612.1
2017-Nov-18 17:00N 54°48' E 010°50'611.3
2017-Nov-18 16:30N 54°42' E 010°48'4 8.0
2017-Nov-18 16:00N 54°39' E 010°52'611.5
2017-Nov-18 15:30N 54°36' E 011°01'611.6
2017-Nov-18 15:00N 54°35' E 011°11'611.3
2017-Nov-18 14:30N 54°33' E 011°20'612.0
2017-Nov-18 14:00N 54°31' E 011°29'611.6
2017-Nov-18 13:30N 54°28' E 011°38'611.7
2017-Nov-18 13:00N 54°27' E 011°48'611.7
2017-Nov-18 12:31N 54°27' E 011°58'611.6
2017-Nov-18 12:00N 54°27' E 012°08'510.2
2017-Nov-18 11:30N 54°31' E 012°13'73 8.6
2017-Nov-18 03:05N 55°04' E 014°05'111.4
2017-Nov-18 02:58N 55°05' E 014°06'511.6
2017-Nov-18 02:30N 55°09' E 014°12'611.3
2017-Nov-18 02:00N 55°14' E 014°18'611.6
2017-Nov-18 01:30N 55°18' E 014°25'611.9
2017-Nov-18 01:00N 55°23' E 014°31'611.8
2017-Nov-18 00:30N 55°27' E 014°38'611.9
2017-Nov-18 00:00N 55°30' E 014°48'712.1
2017-Nov-17 23:27N 55°33' E 014°58'612.1
2017-Nov-17 22:59N 55°36' E 015°07'611.9
2017-Nov-17 22:30N 55°38' E 015°16'612.1
2017-Nov-17 22:00N 55°40' E 015°26'612.1
2017-Nov-17 21:30N 55°41' E 015°37'612.1
2017-Nov-17 21:00N 55°42' E 015°47'612.2
2017-Nov-17 20:30N 55°44' E 015°58'612.2
2017-Nov-17 20:00N 55°45' E 016°08'612.0
2017-Nov-17 19:30N 55°47' E 016°19'612.0
2017-Nov-17 19:00N 55°48' E 016°29'612.1
2017-Nov-17 18:30N 55°49' E 016°40'612.0
2017-Nov-17 18:00N 55°51' E 016°50'  

Dump ship's entire track history